createdAt,value
2019-04-26T00:00:03.081Z,7.47
2019-04-26T00:02:43.578Z,7.72
2019-04-26T00:05:17.207Z,7.12
2019-04-26T00:07:51.279Z,7.92
2019-04-26T00:10:31.957Z,8.48
2019-04-26T00:13:27.574Z,8.30
2019-04-26T00:16:22.784Z,7.85
2019-04-26T00:18:56.619Z,8.20
2019-04-26T00:21:30.312Z,7.53
2019-04-26T00:24:03.820Z,8.60
2019-04-26T00:26:37.103Z,8.60
2019-04-26T00:29:11.368Z,8.75
2019-04-26T00:31:44.675Z,8.83
2019-04-26T00:34:19.531Z,8.43
2019-04-26T00:36:52.760Z,9.00
2019-04-26T00:39:26.441Z,8.45
2019-04-26T00:42:00.101Z,9.35
2019-04-26T00:44:33.418Z,9.43
2019-04-26T00:47:09.739Z,8.33
2019-04-26T00:49:44.216Z,7.97
2019-04-26T00:52:18.132Z,8.23
2019-04-26T00:54:52.362Z,8.33
2019-04-26T00:57:26.914Z,7.92
2019-04-26T01:00:01.007Z,7.97
2019-04-26T01:02:38.861Z,7.87
2019-04-26T01:05:12.111Z,8.23
2019-04-26T01:07:47.314Z,8.05
2019-04-26T01:10:21.619Z,8.65
2019-04-26T01:12:54.871Z,8.40
2019-04-26T01:15:28.168Z,7.67
2019-04-26T01:18:01.702Z,7.83
2019-04-26T01:20:37.354Z,8.13
2019-04-26T01:23:14.381Z,7.95
2019-04-26T01:26:09.152Z,7.55
2019-04-26T01:28:56.651Z,8.10
2019-04-26T01:31:34.317Z,7.60
2019-04-26T01:34:07.409Z,7.50
2019-04-26T01:36:41.985Z,8.03
2019-04-26T01:39:21.266Z,8.13
2019-04-26T01:42:03.427Z,8.48
2019-04-26T01:44:47.863Z,8.05
2019-04-26T01:47:22.161Z,8.55
2019-04-26T01:49:56.169Z,8.10
2019-04-26T01:52:30.297Z,7.92
2019-04-26T01:55:03.566Z,8.30
2019-04-26T01:57:37.084Z,8.05
2019-04-26T02:00:25.581Z,7.83
2019-04-26T02:03:02.549Z,8.15
2019-04-26T02:05:35.851Z,7.97
2019-04-26T02:08:10.544Z,7.53
2019-04-26T02:10:44.127Z,8.00
2019-04-26T02:13:17.482Z,7.33
2019-04-26T02:15:50.726Z,7.47
2019-04-26T02:18:25.413Z,7.70
2019-04-26T02:21:24.502Z,8.20
2019-04-26T02:24:17.546Z,7.55
2019-04-26T02:26:52.328Z,7.58
2019-04-26T02:29:31.182Z,6.80
2019-04-26T02:32:09.145Z,7.55
2019-04-26T02:34:43.520Z,6.72
2019-04-26T02:37:17.575Z,7.03
2019-04-26T02:39:52.913Z,6.60
2019-04-26T02:42:36.718Z,7.58
2019-04-26T02:45:58.328Z,7.67
2019-04-26T02:48:51.918Z,6.95
2019-04-26T02:51:36.266Z,7.00
2019-04-26T02:54:29.077Z,7.40
2019-04-26T02:57:05.001Z,8.00
2019-04-26T02:59:47.854Z,7.35
2019-04-26T03:02:33.289Z,7.25
2019-04-26T03:05:09.954Z,7.80
2019-04-26T03:08:18.827Z,7.08
2019-04-26T03:11:22.476Z,7.47
2019-04-26T03:14:21.060Z,7.42
2019-04-26T03:17:16.079Z,9.55
2019-04-26T03:20:01.857Z,8.13
2019-04-26T03:23:01.456Z,8.35
2019-04-26T03:26:00.140Z,7.60
2019-04-26T03:29:16.108Z,8.65
2019-04-26T03:32:30.000Z,8.30
2019-04-26T03:35:55.364Z,8.63
2019-04-26T03:38:53.995Z,8.68
2019-04-26T03:41:44.466Z,8.38
2019-04-26T03:44:40.925Z,8.78
2019-04-26T03:47:20.258Z,8.20
2019-04-26T03:50:30.986Z,8.03
2019-04-26T03:53:38.305Z,8.38
2019-04-26T03:57:13.839Z,8.10
2019-04-26T04:00:38.760Z,8.80
2019-04-26T04:04:09.533Z,9.50
2019-04-26T04:07:02.676Z,8.73
2019-04-26T04:09:21.040Z,9.45
2019-04-26T04:12:12.711Z,8.45
2019-04-26T04:15:16.447Z,8.33
2019-04-26T04:17:59.138Z,9.33
2019-04-26T04:21:12.440Z,8.38
2019-04-26T04:24:14.638Z,8.33
2019-04-26T04:27:13.651Z,7.60
2019-04-26T04:30:31.046Z,7.47
2019-04-26T04:34:11.707Z,7.12
2019-04-26T04:36:55.942Z,7.12
2019-04-26T04:39:49.907Z,6.40
2019-04-26T04:43:30.811Z,7.05
2019-04-26T04:46:54.174Z,6.90
2019-04-26T04:50:33.986Z,7.62
2019-04-26T04:53:56.783Z,8.03
2019-04-26T04:57:37.351Z,7.85
2019-04-26T05:00:31.024Z,6.72
2019-04-26T05:03:37.967Z,6.47
2019-04-26T05:06:28.799Z,7.05
2019-04-26T05:09:30.694Z,6.25
2019-04-26T05:12:16.237Z,6.60
2019-04-26T05:15:39.618Z,6.55
2019-04-26T05:19:28.440Z,6.80
2019-04-26T05:23:01.603Z,6.25
2019-04-26T05:26:47.671Z,7.22
2019-04-26T05:30:40.939Z,6.33
2019-04-26T05:33:48.852Z,6.30
2019-04-26T05:37:05.943Z,5.90
2019-04-26T05:40:06.750Z,6.00
2019-04-26T05:43:50.253Z,5.97
2019-04-26T05:47:37.703Z,6.33
2019-04-26T05:51:18.671Z,5.97
2019-04-26T05:54:49.596Z,6.30
2019-04-26T05:58:11.501Z,5.78
2019-04-26T06:01:32.895Z,5.97
2019-04-26T06:04:43.211Z,6.03
2019-04-26T06:08:04.554Z,5.75
2019-04-26T06:11:00.045Z,6.20
2019-04-26T06:14:50.485Z,5.80
2019-04-26T06:18:19.932Z,5.80
2019-04-26T06:21:36.893Z,6.00
2019-04-26T06:24:45.602Z,6.12
2019-04-26T06:28:00.627Z,5.37
2019-04-26T06:31:15.095Z,5.40
2019-04-26T06:34:24.014Z,5.30
2019-04-26T06:37:21.070Z,5.35
2019-04-26T06:40:14.993Z,4.92
2019-04-26T06:43:19.530Z,5.87
2019-04-26T06:47:01.767Z,4.67
2019-04-26T06:50:16.810Z,4.87
2019-04-26T06:53:38.335Z,4.83
2019-04-26T06:56:50.905Z,3.90
2019-04-26T07:00:07.078Z,4.17
2019-04-26T07:03:11.279Z,4.05
2019-04-26T07:05:49.378Z,4.35
2019-04-26T07:09:13.086Z,4.30
2019-04-26T07:12:50.428Z,4.83
2019-04-26T07:16:22.367Z,4.22
2019-04-26T07:20:34.330Z,4.00
2019-04-26T07:24:16.750Z,4.22
2019-04-26T07:28:11.864Z,3.72
2019-04-26T07:31:09.014Z,4.08
2019-04-26T07:34:44.896Z,4.75
2019-04-26T07:38:04.827Z,4.50
2019-04-26T07:41:33.140Z,4.70
2019-04-26T07:44:55.287Z,4.03
2019-04-26T07:48:19.313Z,4.72
2019-04-26T07:51:57.812Z,4.45
2019-04-26T07:55:14.912Z,4.60
2019-04-26T07:58:40.122Z,4.55
2019-04-26T08:02:06.695Z,4.62
2019-04-26T08:04:49.213Z,4.58
2019-04-26T08:07:28.310Z,4.72
2019-04-26T08:10:23.922Z,4.62
2019-04-26T08:13:09.988Z,4.25
2019-04-26T08:16:17.037Z,4.10
2019-04-26T08:19:00.222Z,4.00
2019-04-26T08:21:42.557Z,4.08
2019-04-26T08:24:23.635Z,4.37
2019-04-26T08:27:26.410Z,4.17
2019-04-26T08:30:10.120Z,4.20
2019-04-26T08:32:49.788Z,3.90
2019-04-26T08:35:29.071Z,4.47
2019-04-26T08:38:16.367Z,4.42
2019-04-26T08:40:46.250Z,4.28
2019-04-26T08:43:44.571Z,4.50
2019-04-26T08:46:41.899Z,5.33
2019-04-26T08:49:35.117Z,4.45
2019-04-26T08:52:14.565Z,4.50
2019-04-26T08:54:54.972Z,4.53
2019-04-26T08:57:33.610Z,3.70
2019-04-26T09:00:15.483Z,4.03
2019-04-26T09:03:12.054Z,4.33
2019-04-26T09:06:04.358Z,4.62
2019-04-26T09:08:43.473Z,4.17
2019-04-26T09:11:25.955Z,4.30
2019-04-26T09:13:59.646Z,4.45
2019-04-26T09:16:32.815Z,4.17
2019-04-26T09:19:05.995Z,4.62
2019-04-26T09:22:13.684Z,4.10
2019-04-26T09:24:55.051Z,3.67
2019-04-26T09:27:42.247Z,3.90
2019-04-26T09:30:33.841Z,4.50
2019-04-26T09:33:21.659Z,3.92
2019-04-26T09:35:55.874Z,4.08
2019-04-26T09:38:29.667Z,4.08
2019-04-26T09:41:03.554Z,3.98
2019-04-26T09:44:00.319Z,4.40
2019-04-26T09:46:55.768Z,4.05
2019-04-26T09:49:37.324Z,3.60
2019-04-26T09:52:17.820Z,4.08
2019-04-26T09:54:50.970Z,4.03
2019-04-26T09:57:24.412Z,3.90
2019-04-26T09:59:57.565Z,3.72
2019-04-26T10:02:33.974Z,3.95
2019-04-26T10:05:08.028Z,4.12
2019-04-26T10:07:40.589Z,4.25
2019-04-26T10:10:22.814Z,4.12
2019-04-26T10:13:10.374Z,3.87
2019-04-26T10:16:13.999Z,4.05
2019-04-26T10:18:54.488Z,4.35
2019-04-26T10:21:25.705Z,4.58
2019-04-26T10:23:58.047Z,4.10
2019-04-26T10:26:31.468Z,3.77
2019-04-26T10:29:05.308Z,3.95
2019-04-26T10:31:38.637Z,4.25
2019-04-26T10:34:12.919Z,3.70
2019-04-26T10:36:46.555Z,3.70
2019-04-26T10:39:20.664Z,3.55
2019-04-26T10:41:54.488Z,3.52
2019-04-26T10:44:28.451Z,3.83
2019-04-26T10:47:04.487Z,3.75
2019-04-26T10:49:58.167Z,4.10
2019-04-26T10:52:41.603Z,4.60
2019-04-26T10:55:31.265Z,4.05
2019-04-26T10:58:14.443Z,3.42
2019-04-26T11:00:52.753Z,3.92
2019-04-26T11:03:24.635Z,3.85
2019-04-26T11:05:58.376Z,4.00
2019-04-26T11:08:31.260Z,3.40
2019-04-26T11:11:04.942Z,3.50
2019-04-26T11:13:38.261Z,3.92
2019-04-26T11:16:12.091Z,3.65
2019-04-26T11:18:45.358Z,4.12
2019-04-26T11:21:20.777Z,4.22
2019-04-26T11:23:54.225Z,3.85
2019-04-26T11:26:31.033Z,3.50
2019-04-26T11:29:03.174Z,3.10
2019-04-26T11:31:36.804Z,3.20
2019-04-26T11:34:10.574Z,3.05
2019-04-26T11:36:44.667Z,3.27
2019-04-26T11:39:18.764Z,2.83
2019-04-26T11:41:52.767Z,3.60
2019-04-26T11:44:27.517Z,3.55
2019-04-26T11:47:07.638Z,3.40
2019-04-26T11:49:41.605Z,3.40
2019-04-26T11:52:12.734Z,3.58
2019-04-26T11:54:45.984Z,3.58
2019-04-26T11:57:19.086Z,3.08
2019-04-26T11:59:51.506Z,3.67
2019-04-26T12:02:24.352Z,3.40
2019-04-26T12:05:24.687Z,3.45
2019-04-26T12:08:02.376Z,3.90
2019-04-26T12:10:35.298Z,3.52
2019-04-26T12:13:08.709Z,3.33
2019-04-26T12:15:43.686Z,2.90
2019-04-26T12:18:18.388Z,3.52
2019-04-26T12:20:51.899Z,3.27
2019-04-26T12:23:24.791Z,3.42
2019-04-26T12:25:56.801Z,3.70
2019-04-26T12:28:30.093Z,3.15
2019-04-26T12:31:03.015Z,2.75
2019-04-26T12:33:39.079Z,2.72
2019-04-26T12:36:13.351Z,2.70
2019-04-26T12:38:45.735Z,2.60
2019-04-26T12:41:25.214Z,3.60
2019-04-26T12:43:58.908Z,2.85
2019-04-26T12:46:43.443Z,2.83
2019-04-26T12:49:16.413Z,2.77
2019-04-26T12:51:49.786Z,2.42
2019-04-26T12:54:22.769Z,2.75
2019-04-26T12:56:55.173Z,2.72
2019-04-26T12:59:28.252Z,2.62
2019-04-26T13:02:05.753Z,2.42
2019-04-26T13:04:36.142Z,2.95
2019-04-26T13:07:23.574Z,2.42
2019-04-26T13:10:12.756Z,2.65
2019-04-26T13:13:04.008Z,2.92
2019-04-26T13:16:21.734Z,2.40
2019-04-26T13:18:52.838Z,2.60
2019-04-26T13:21:26.193Z,2.60
2019-04-26T13:24:03.952Z,2.72
2019-04-26T13:26:36.302Z,2.47
2019-04-26T13:29:09.395Z,2.50
2019-04-26T13:31:42.668Z,2.20
2019-04-26T13:34:14.662Z,2.02
2019-04-26T13:36:47.929Z,2.22
2019-04-26T13:39:22.361Z,2.65
2019-04-26T13:42:02.958Z,2.70
2019-04-26T13:44:45.995Z,2.70
2019-04-26T13:47:46.465Z,2.65
2019-04-26T13:50:32.191Z,2.55
2019-04-26T13:53:06.115Z,2.35
2019-04-26T13:55:39.993Z,2.47
2019-04-26T13:58:15.415Z,2.55
2019-04-26T14:00:49.038Z,3.10
2019-04-26T14:03:22.333Z,2.80
2019-04-26T14:05:55.149Z,2.50
2019-04-26T14:08:28.820Z,2.65
2019-04-26T14:11:02.965Z,2.30
2019-04-26T14:13:36.775Z,2.65
2019-04-26T14:16:09.451Z,2.52
2019-04-26T14:18:43.256Z,2.30
2019-04-26T14:21:16.837Z,2.70
2019-04-26T14:24:08.581Z,2.60
2019-04-26T14:26:44.632Z,2.55
2019-04-26T14:29:18.415Z,2.60
2019-04-26T14:31:53.134Z,2.90
2019-04-26T14:34:26.167Z,2.98
2019-04-26T14:37:06.323Z,2.40
2019-04-26T14:39:49.252Z,2.85
2019-04-26T14:42:09.112Z,2.70
2019-04-26T14:44:49.556Z,2.98
2019-04-26T14:47:18.483Z,2.70
2019-04-26T14:49:53.462Z,3.60
2019-04-26T14:52:29.000Z,3.05
2019-04-26T14:55:02.529Z,2.35
2019-04-26T14:57:36.653Z,2.37
2019-04-26T15:00:12.721Z,3.17
2019-04-26T15:02:56.118Z,2.67
2019-04-26T15:05:46.477Z,2.45
2019-04-26T15:08:20.024Z,2.80
2019-04-26T15:11:00.913Z,3.35
2019-04-26T15:13:29.249Z,3.35
2019-04-26T15:16:03.927Z,3.42
2019-04-26T15:18:37.849Z,3.50
2019-04-26T15:21:12.886Z,3.58
2019-04-26T15:23:47.024Z,3.25
2019-04-26T15:26:24.253Z,3.20
2019-04-26T15:28:54.684Z,3.47
2019-04-26T15:31:28.413Z,4.05
2019-04-26T15:34:03.240Z,4.17
2019-04-26T15:36:37.429Z,3.67
2019-04-26T15:39:45.296Z,3.70
2019-04-26T15:42:36.817Z,4.10
2019-04-26T15:45:17.180Z,3.95
2019-04-26T15:48:16.161Z,3.90
2019-04-26T15:50:50.600Z,4.03
2019-04-26T15:53:23.950Z,4.70
2019-04-26T15:55:57.400Z,4.45
2019-04-26T15:58:30.968Z,4.35
2019-04-26T16:01:06.778Z,4.08
2019-04-26T16:03:41.154Z,4.37
2019-04-26T16:06:16.216Z,4.42
2019-04-26T16:08:50.158Z,3.77
2019-04-26T16:11:22.930Z,4.42
2019-04-26T16:13:56.947Z,4.75
2019-04-26T16:16:32.994Z,4.30
2019-04-26T16:19:05.701Z,4.60
2019-04-26T16:21:38.944Z,4.40
2019-04-26T16:24:12.912Z,5.28
2019-04-26T16:26:55.974Z,5.08
2019-04-26T16:29:46.617Z,4.95
2019-04-26T16:32:52.655Z,4.62
2019-04-26T16:38:20.221Z,4.95
2019-04-26T16:40:55.149Z,4.70
2019-04-26T16:43:39.631Z,5.25
2019-04-26T16:46:03.516Z,5.85
2019-04-26T16:48:36.919Z,5.12
2019-04-26T16:51:09.805Z,6.37
2019-04-26T16:53:58.500Z,6.90
2019-04-26T16:56:25.809Z,6.35
2019-04-26T16:58:54.975Z,7.33
2019-04-26T17:00:30.713Z,5.45
2019-04-26T17:01:27.307Z,7.80
2019-04-26T17:04:01.049Z,8.50
2019-04-26T17:06:34.320Z,8.30
2019-04-26T17:09:09.748Z,7.97
2019-04-26T17:11:43.492Z,7.42
2019-04-26T17:14:16.097Z,7.28
2019-04-26T17:16:49.004Z,6.58
2019-04-26T17:19:22.786Z,6.53
2019-04-26T17:22:15.817Z,6.42
2019-04-26T17:25:12.544Z,7.95
2019-04-26T17:27:47.151Z,6.87
2019-04-26T17:30:23.404Z,7.20
2019-04-26T17:32:57.047Z,6.87
2019-04-26T17:35:29.782Z,7.17
2019-04-26T17:38:05.001Z,6.37
2019-04-26T17:40:38.022Z,6.85
2019-04-26T17:43:11.417Z,6.22
2019-04-26T17:45:44.933Z,6.75
2019-04-26T17:48:18.233Z,7.10
2019-04-26T17:50:52.038Z,6.92
2019-04-26T17:53:28.799Z,7.15
2019-04-26T17:56:00.668Z,7.12
2019-04-26T17:58:35.758Z,7.65
2019-04-26T18:01:08.354Z,7.75
2019-04-26T18:03:50.750Z,8.45
2019-04-26T18:06:28.819Z,8.30
2019-04-26T18:08:54.904Z,9.18
2019-04-26T18:11:27.094Z,10.35
2019-04-26T18:14:00.559Z,10.90
2019-04-26T18:16:34.475Z,12.13
2019-04-26T18:19:30.457Z,11.40
2019-04-26T18:22:16.863Z,9.70
2019-04-26T18:24:49.760Z,9.73
2019-04-26T18:27:24.070Z,10.30
2019-04-26T18:29:59.849Z,10.10
2019-04-26T18:32:33.951Z,9.68
2019-04-26T18:35:09.217Z,10.32
2019-04-26T18:37:43.288Z,9.95
2019-04-26T18:40:16.516Z,9.58
2019-04-26T18:42:50.246Z,9.75
2019-04-26T18:45:28.807Z,9.30
2019-04-26T18:48:01.156Z,9.10
2019-04-26T18:50:36.549Z,9.28
2019-04-26T18:53:26.642Z,8.53
2019-04-26T18:56:03.474Z,8.83
2019-04-26T18:58:38.064Z,9.93
2019-04-26T19:01:13.600Z,10.72
2019-04-26T19:03:49.378Z,11.28
2019-04-26T19:06:31.129Z,11.68
2019-04-26T19:09:02.356Z,12.30
2019-04-26T19:11:34.214Z,12.05
2019-04-26T19:14:24.211Z,11.50
2019-04-26T19:17:14.961Z,12.05
2019-04-26T19:20:12.301Z,11.08
2019-04-26T19:22:51.931Z,10.40
2019-04-26T19:25:25.482Z,10.70
2019-04-26T19:28:03.525Z,10.75
2019-04-26T19:30:33.891Z,10.55
2019-04-26T19:33:11.649Z,9.48
2019-04-26T19:35:44.076Z,10.90
2019-04-26T19:38:15.227Z,10.50
2019-04-26T19:40:48.564Z,10.05
2019-04-26T19:43:30.756Z,8.63
2019-04-26T19:46:16.999Z,8.88
2019-04-26T19:49:25.798Z,9.90
2019-04-26T19:52:19.239Z,9.43
2019-04-26T19:55:11.460Z,8.93
2019-04-26T19:57:57.517Z,8.03
2019-04-26T20:00:32.176Z,8.83
2019-04-26T20:03:08.452Z,8.48
2019-04-26T20:05:43.489Z,8.28
2019-04-26T20:08:14.786Z,8.60
2019-04-26T20:10:48.277Z,8.18
2019-04-26T20:13:22.007Z,8.53
2019-04-26T20:15:57.462Z,8.33
2019-04-26T20:18:34.402Z,7.83
2019-04-26T20:21:06.503Z,8.68
2019-04-26T20:23:43.684Z,8.53
2019-04-26T20:26:14.282Z,8.78
2019-04-26T20:28:46.643Z,8.73
2019-04-26T20:31:45.022Z,8.53
2019-04-26T20:34:18.162Z,7.83
2019-04-26T20:36:48.925Z,8.63
2019-04-26T20:39:23.965Z,8.85
2019-04-26T20:42:01.915Z,9.53
2019-04-26T20:44:48.058Z,9.03
2019-04-26T20:47:12.002Z,8.10
2019-04-26T20:49:49.581Z,8.98
2019-04-26T20:52:21.339Z,9.45
2019-04-26T20:54:54.103Z,10.32
2019-04-26T20:57:30.653Z,9.90
2019-04-26T21:00:03.222Z,10.65
2019-04-26T21:02:35.237Z,9.83
2019-04-26T21:05:11.246Z,9.28
2019-04-26T21:07:49.107Z,8.53
2019-04-26T21:10:22.208Z,8.35
2019-04-26T21:12:55.225Z,8.83
2019-04-26T21:15:28.062Z,9.35
2019-04-26T21:18:02.751Z,10.20
2019-04-26T21:20:36.510Z,9.08
2019-04-26T21:23:13.317Z,9.03
2019-04-26T21:25:55.114Z,9.58
2019-04-26T21:28:38.202Z,9.00
2019-04-26T21:31:36.129Z,8.78
2019-04-26T21:34:12.461Z,9.30
2019-04-26T21:37:00.442Z,9.70
2019-04-26T21:39:47.652Z,10.15
2019-04-26T21:42:20.930Z,8.93
2019-04-26T21:44:54.939Z,9.65
2019-04-26T21:47:27.541Z,10.25
2019-04-26T21:50:01.226Z,10.32
2019-04-26T21:52:34.330Z,10.98
2019-04-26T21:55:08.635Z,10.30
2019-04-26T21:57:41.909Z,9.78
2019-04-26T22:00:40.604Z,9.13
2019-04-26T22:03:16.089Z,10.28
2019-04-26T22:05:50.695Z,9.95
2019-04-26T22:08:30.006Z,9.18
2019-04-26T22:11:04.582Z,9.53
2019-04-26T22:13:56.228Z,8.70
2019-04-26T22:16:46.993Z,9.93
2019-04-26T22:19:38.054Z,8.60
2019-04-26T22:22:23.242Z,8.85
2019-04-26T22:24:56.664Z,10.10
2019-04-26T22:27:29.625Z,8.55
2019-04-26T22:30:03.918Z,8.85
2019-04-26T22:32:37.105Z,9.00
2019-04-26T22:35:13.448Z,8.60
2019-04-26T22:37:45.610Z,9.05
2019-04-26T22:40:19.963Z,9.50
2019-04-26T22:42:56.749Z,8.58
2019-04-26T22:45:54.101Z,8.08
2019-04-26T22:48:33.941Z,9.73
2019-04-26T22:51:07.267Z,8.85
2019-04-26T22:53:39.644Z,8.43
2019-04-26T22:56:13.416Z,8.68
2019-04-26T22:58:46.305Z,8.08
2019-04-26T23:01:20.552Z,7.53
2019-04-26T23:03:53.866Z,8.40
2019-04-26T23:06:27.854Z,8.38
2019-04-26T23:09:01.192Z,7.92
2019-04-26T23:11:35.034Z,7.42
2019-04-26T23:14:19.145Z,7.50
2019-04-26T23:17:08.418Z,7.72
2019-04-26T23:20:03.857Z,6.58
2019-04-26T23:22:37.668Z,7.12
2019-04-26T23:25:11.008Z,7.42
2019-04-26T23:27:45.038Z,7.37
2019-04-26T23:30:18.147Z,7.00
2019-04-26T23:32:53.235Z,7.20
2019-04-26T23:35:26.925Z,6.80
2019-04-26T23:38:01.323Z,7.12
2019-04-26T23:40:35.569Z,6.20
2019-04-26T23:43:09.755Z,6.15
2019-04-26T23:45:48.377Z,6.80
2019-04-26T23:48:18.424Z,7.17
2019-04-26T23:50:51.255Z,6.00
2019-04-26T23:53:24.600Z,6.45
2019-04-26T23:55:58.376Z,6.28
2019-04-26T23:58:33.203Z,6.05
